sensor_id;sensor_type;location;lat;lon;timestamp;temperature;humidity
7576;DHT22;3829;50.798;4.358;2023-06-14T00:01:14;21.70;94.40
7576;DHT22;3829;50.798;4.358;2023-06-14T00:03:39;21.80;94.40
7576;DHT22;3829;50.798;4.358;2023-06-14T00:06:05;21.60;94.70
7576;DHT22;3829;50.798;4.358;2023-06-14T00:08:31;21.60;94.80
7576;DHT22;3829;50.798;4.358;2023-06-14T00:10:56;21.70;94.90
7576;DHT22;3829;50.798;4.358;2023-06-14T00:13:22;21.60;95.00
7576;DHT22;3829;50.798;4.358;2023-06-14T00:15:47;21.60;95.10
7576;DHT22;3829;50.798;4.358;2023-06-14T00:18:13;21.50;95.10
7576;DHT22;3829;50.798;4.358;2023-06-14T00:20:38;21.50;95.30
7576;DHT22;3829;50.798;4.358;2023-06-14T00:23:04;21.50;95.40
7576;DHT22;3829;50.798;4.358;2023-06-14T00:25:30;21.40;95.80
7576;DHT22;3829;50.798;4.358;2023-06-14T00:27:57;21.40;95.80
7576;DHT22;3829;50.798;4.358;2023-06-14T00:30:23;21.30;96.10
7576;DHT22;3829;50.798;4.358;2023-06-14T00:32:49;21.30;96.20
7576;DHT22;3829;50.798;4.358;2023-06-14T00:35:15;21.20;96.40
7576;DHT22;3829;50.798;4.358;2023-06-14T00:37:41;21.30;96.50
7576;DHT22;3829;50.798;4.358;2023-06-14T00:40:06;21.20;96.70
7576;DHT22;3829;50.798;4.358;2023-06-14T00:42:32;21.20;97.00
7576;DHT22;3829;50.798;4.358;2023-06-14T00:44:58;21.20;97.10
7576;DHT22;3829;50.798;4.358;2023-06-14T00:47:24;21.10;97.30
7576;DHT22;3829;50.798;4.358;2023-06-14T00:49:51;21.10;97.40
7576;DHT22;3829;50.798;4.358;2023-06-14T00:52:17;21.00;97.60
7576;DHT22;3829;50.798;4.358;2023-06-14T00:54:43;21.00;97.70
7576;DHT22;3829;50.798;4.358;2023-06-14T00:57:10;21.10;97.90
7576;DHT22;3829;50.798;4.358;2023-06-14T00:59:42;21.00;98.00
7576;DHT22;3829;50.798;4.358;2023-06-14T01:02:09;20.90;98.20
7576;DHT22;3829;50.798;4.358;2023-06-14T01:04:34;20.90;98.50
7576;DHT22;3829;50.798;4.358;2023-06-14T01:07:07;20.90;98.70
7576;DHT22;3829;50.798;4.358;2023-06-14T01:12:31;20.80;99.10
7576;DHT22;3829;50.798;4.358;2023-06-14T01:15:01;20.80;99.30
7576;DHT22;3829;50.798;4.358;2023-06-14T01:17:28;20.70;99.50
7576;DHT22;3829;50.798;4.358;2023-06-14T01:19:58;20.60;99.80
7576;DHT22;3829;50.798;4.358;2023-06-14T01:22:26;20.60;99.90
7576;DHT22;3829;50.798;4.358;2023-06-14T01:24:53;20.70;99.90
7576;DHT22;3829;50.798;4.358;2023-06-14T01:27:22;20.60;99.90
7576;DHT22;3829;50.798;4.358;2023-06-14T01:29:50;20.60;99.90
7576;DHT22;3829;50.798;4.358;2023-06-14T01:32:17;20.60;99.90
7576;DHT22;3829;50.798;4.358;2023-06-14T01:34:43;20.50;99.90
7576;DHT22;3829;50.798;4.358;2023-06-14T01:37:11;20.50;99.90
7576;DHT22;3829;50.798;4.358;2023-06-14T01:39:37;20.50;99.90
7576;DHT22;3829;50.798;4.358;2023-06-14T01:42:03;20.50;99.90
7576;DHT22;3829;50.798;4.358;2023-06-14T01:44:30;20.50;99.90
7576;DHT22;3829;50.798;4.358;2023-06-14T01:46:57;20.50;99.90
7576;DHT22;3829;50.798;4.358;2023-06-14T01:49:22;20.50;99.90
7576;DHT22;3829;50.798;4.358;2023-06-14T01:51:48;20.40;99.90
7576;DHT22;3829;50.798;4.358;2023-06-14T01:54:14;20.30;99.90
7576;DHT22;3829;50.798;4.358;2023-06-14T01:56:39;20.40;99.90
7576;DHT22;3829;50.798;4.358;2023-06-14T01:59:05;20.30;99.90
7576;DHT22;3829;50.798;4.358;2023-06-14T02:01:30;20.20;99.90
7576;DHT22;3829;50.798;4.358;2023-06-14T02:03:56;20.20;99.90
7576;DHT22;3829;50.798;4.358;2023-06-14T02:06:22;20.10;99.90
7576;DHT22;3829;50.798;4.358;2023-06-14T02:08:47;20.20;99.90
7576;DHT22;3829;50.798;4.358;2023-06-14T02:11:13;20.00;99.90
7576;DHT22;3829;50.798;4.358;2023-06-14T02:13:38;20.10;99.90
7576;DHT22;3829;50.798;4.358;2023-06-14T02:16:04;20.00;99.90
7576;DHT22;3829;50.798;4.358;2023-06-14T02:18:30;19.90;99.90
7576;DHT22;3829;50.798;4.358;2023-06-14T02:20:56;19.90;99.90
7576;DHT22;3829;50.798;4.358;2023-06-14T02:23:22;19.90;99.90
7576;DHT22;3829;50.798;4.358;2023-06-14T02:25:47;19.90;99.90
7576;DHT22;3829;50.798;4.358;2023-06-14T02:28:13;19.90;99.90
7576;DHT22;3829;50.798;4.358;2023-06-14T02:30:38;19.90;99.90
7576;DHT22;3829;50.798;4.358;2023-06-14T02:33:04;19.80;99.90
7576;DHT22;3829;50.798;4.358;2023-06-14T02:35:30;19.80;99.90
7576;DHT22;3829;50.798;4.358;2023-06-14T02:37:56;19.80;99.90
7576;DHT22;3829;50.798;4.358;2023-06-14T02:40:22;19.70;99.90
7576;DHT22;3829;50.798;4.358;2023-06-14T02:42:47;19.70;99.90
7576;DHT22;3829;50.798;4.358;2023-06-14T02:45:13;19.60;99.90
7576;DHT22;3829;50.798;4.358;2023-06-14T02:47:39;19.60;99.90
7576;DHT22;3829;50.798;4.358;2023-06-14T02:50:05;19.60;99.90
7576;DHT22;3829;50.798;4.358;2023-06-14T02:52:31;19.50;99.90
7576;DHT22;3829;50.798;4.358;2023-06-14T02:54:58;19.50;99.90
7576;DHT22;3829;50.798;4.358;2023-06-14T02:57:24;19.40;99.90
7576;DHT22;3829;50.798;4.358;2023-06-14T02:59:50;19.40;99.90
7576;DHT22;3829;50.798;4.358;2023-06-14T03:02:15;19.30;99.90
7576;DHT22;3829;50.798;4.358;2023-06-14T03:04:41;19.30;99.90
7576;DHT22;3829;50.798;4.358;2023-06-14T03:07:10;19.30;99.90
7576;DHT22;3829;50.798;4.358;2023-06-14T03:09:36;19.20;99.90
7576;DHT22;3829;50.798;4.358;2023-06-14T03:12:03;19.20;99.90
7576;DHT22;3829;50.798;4.358;2023-06-14T03:14:29;19.10;99.90
7576;DHT22;3829;50.798;4.358;2023-06-14T03:16:56;19.10;99.90
7576;DHT22;3829;50.798;4.358;2023-06-14T03:19:22;19.10;99.90
7576;DHT22;3829;50.798;4.358;2023-06-14T03:21:48;19.00;99.90
7576;DHT22;3829;50.798;4.358;2023-06-14T03:24:15;18.90;99.90
7576;DHT22;3829;50.798;4.358;2023-06-14T03:26:42;18.90;99.90
7576;DHT22;3829;50.798;4.358;2023-06-14T03:29:07;18.90;99.90
7576;DHT22;3829;50.798;4.358;2023-06-14T03:31:34;18.80;99.90
7576;DHT22;3829;50.798;4.358;2023-06-14T03:34:01;18.80;99.90
7576;DHT22;3829;50.798;4.358;2023-06-14T03:36:26;18.70;99.90
7576;DHT22;3829;50.798;4.358;2023-06-14T03:38:53;18.70;99.90
7576;DHT22;3829;50.798;4.358;2023-06-14T03:41:19;18.70;99.90
7576;DHT22;3829;50.798;4.358;2023-06-14T03:43:44;18.70;99.90
7576;DHT22;3829;50.798;4.358;2023-06-14T03:46:10;18.70;99.90
7576;DHT22;3829;50.798;4.358;2023-06-14T03:48:36;18.70;99.90
7576;DHT22;3829;50.798;4.358;2023-06-14T03:51:01;18.60;99.90
7576;DHT22;3829;50.798;4.358;2023-06-14T03:53:27;18.60;99.90
7576;DHT22;3829;50.798;4.358;2023-06-14T03:55:54;18.60;99.90
7576;DHT22;3829;50.798;4.358;2023-06-14T03:58:20;18.60;99.90
7576;DHT22;3829;50.798;4.358;2023-06-14T04:00:46;18.60;99.90
7576;DHT22;3829;50.798;4.358;2023-06-14T04:03:11;18.60;99.90
7576;DHT22;3829;50.798;4.358;2023-06-14T04:05:39;18.60;99.90
7576;DHT22;3829;50.798;4.358;2023-06-14T04:08:08;18.60;99.90
7576;DHT22;3829;50.798;4.358;2023-06-14T04:10:34;18.60;99.90
7576;DHT22;3829;50.798;4.358;2023-06-14T04:13:00;18.50;99.90
7576;DHT22;3829;50.798;4.358;2023-06-14T04:15:25;18.50;99.90
7576;DHT22;3829;50.798;4.358;2023-06-14T04:17:53;18.50;99.90
7576;DHT22;3829;50.798;4.358;2023-06-14T04:20:22;18.50;99.90
7576;DHT22;3829;50.798;4.358;2023-06-14T04:22:50;18.50;99.90
7576;DHT22;3829;50.798;4.358;2023-06-14T04:25:16;18.50;99.90
7576;DHT22;3829;50.798;4.358;2023-06-14T04:27:42;18.40;99.90
7576;DHT22;3829;50.798;4.358;2023-06-14T04:30:08;18.40;99.90
7576;DHT22;3829;50.798;4.358;2023-06-14T04:32:34;18.40;99.90
7576;DHT22;3829;50.798;4.358;2023-06-14T04:35:04;18.40;99.90
7576;DHT22;3829;50.798;4.358;2023-06-14T04:37:30;18.50;99.90
7576;DHT22;3829;50.798;4.358;2023-06-14T04:39:56;18.50;99.90
7576;DHT22;3829;50.798;4.358;2023-06-14T04:42:23;18.60;99.90
7576;DHT22;3829;50.798;4.358;2023-06-14T04:44:51;18.50;99.90
7576;DHT22;3829;50.798;4.358;2023-06-14T04:47:17;18.50;99.90
7576;DHT22;3829;50.798;4.358;2023-06-14T04:49:43;18.50;99.90
7576;DHT22;3829;50.798;4.358;2023-06-14T04:52:10;18.50;99.90
7576;DHT22;3829;50.798;4.358;2023-06-14T04:54:36;18.60;99.90
7576;DHT22;3829;50.798;4.358;2023-06-14T04:57:04;18.60;99.90
7576;DHT22;3829;50.798;4.358;2023-06-14T04:59:31;18.60;99.90
7576;DHT22;3829;50.798;4.358;2023-06-14T05:01:58;18.70;99.90
7576;DHT22;3829;50.798;4.358;2023-06-14T05:04:25;18.70;99.90
7576;DHT22;3829;50.798;4.358;2023-06-14T05:06:52;18.70;99.90
7576;DHT22;3829;50.798;4.358;2023-06-14T05:09:20;18.70;99.90
7576;DHT22;3829;50.798;4.358;2023-06-14T05:11:46;18.70;99.90
7576;DHT22;3829;50.798;4.358;2023-06-14T05:14:13;18.70;99.90
7576;DHT22;3829;50.798;4.358;2023-06-14T05:16:39;18.70;99.90
7576;DHT22;3829;50.798;4.358;2023-06-14T05:19:06;18.80;99.90
7576;DHT22;3829;50.798;4.358;2023-06-14T05:21:32;18.80;99.90
7576;DHT22;3829;50.798;4.358;2023-06-14T05:23:59;18.90;99.90
7576;DHT22;3829;50.798;4.358;2023-06-14T05:26:24;18.90;99.90
7576;DHT22;3829;50.798;4.358;2023-06-14T05:28:54;19.00;99.90
7576;DHT22;3829;50.798;4.358;2023-06-14T05:31:22;19.10;99.90
7576;DHT22;3829;50.798;4.358;2023-06-14T05:33:48;19.20;99.90
7576;DHT22;3829;50.798;4.358;2023-06-14T05:36:14;19.30;99.90
7576;DHT22;3829;50.798;4.358;2023-06-14T05:38:39;19.30;99.90
7576;DHT22;3829;50.798;4.358;2023-06-14T05:41:05;19.30;99.90
7576;DHT22;3829;50.798;4.358;2023-06-14T05:43:30;19.40;99.90
7576;DHT22;3829;50.798;4.358;2023-06-14T05:45:57;19.40;99.90
7576;DHT22;3829;50.798;4.358;2023-06-14T05:48:22;19.50;99.90
7576;DHT22;3829;50.798;4.358;2023-06-14T05:50:48;19.60;99.90
7576;DHT22;3829;50.798;4.358;2023-06-14T05:53:13;19.60;99.90
7576;DHT22;3829;50.798;4.358;2023-06-14T05:55:39;19.70;99.90
7576;DHT22;3829;50.798;4.358;2023-06-14T05:58:05;19.80;99.90
7576;DHT22;3829;50.798;4.358;2023-06-14T06:00:30;19.90;99.90
7576;DHT22;3829;50.798;4.358;2023-06-14T06:02:56;19.90;99.90
7576;DHT22;3829;50.798;4.358;2023-06-14T06:05:23;20.00;99.90
7576;DHT22;3829;50.798;4.358;2023-06-14T06:07:49;20.10;99.90
7576;DHT22;3829;50.798;4.358;2023-06-14T06:10:15;20.10;99.90
7576;DHT22;3829;50.798;4.358;2023-06-14T06:12:41;20.30;99.90
7576;DHT22;3829;50.798;4.358;2023-06-14T06:15:07;20.30;99.90
7576;DHT22;3829;50.798;4.358;2023-06-14T06:17:33;20.40;99.90
7576;DHT22;3829;50.798;4.358;2023-06-14T06:19:59;20.50;99.90
7576;DHT22;3829;50.798;4.358;2023-06-14T06:22:25;20.50;99.90
7576;DHT22;3829;50.798;4.358;2023-06-14T06:24:50;20.60;99.90
7576;DHT22;3829;50.798;4.358;2023-06-14T06:27:16;20.60;99.90
7576;DHT22;3829;50.798;4.358;2023-06-14T06:29:44;20.70;99.90
7576;DHT22;3829;50.798;4.358;2023-06-14T06:32:10;20.80;99.90
7576;DHT22;3829;50.798;4.358;2023-06-14T06:34:35;20.90;99.90
7576;DHT22;3829;50.798;4.358;2023-06-14T06:37:01;21.00;99.90
7576;DHT22;3829;50.798;4.358;2023-06-14T06:39:26;21.10;99.90
7576;DHT22;3829;50.798;4.358;2023-06-14T06:41:52;21.30;99.90
7576;DHT22;3829;50.798;4.358;2023-06-14T06:44:17;21.50;99.90
7576;DHT22;3829;50.798;4.358;2023-06-14T06:46:43;21.60;99.90
7576;DHT22;3829;50.798;4.358;2023-06-14T06:49:09;21.60;99.90
7576;DHT22;3829;50.798;4.358;2023-06-14T06:51:37;21.70;99.90
7576;DHT22;3829;50.798;4.358;2023-06-14T06:54:03;21.80;99.90
7576;DHT22;3829;50.798;4.358;2023-06-14T06:56:28;21.90;99.90
7576;DHT22;3829;50.798;4.358;2023-06-14T06:58:54;21.90;99.90
7576;DHT22;3829;50.798;4.358;2023-06-14T07:01:20;22.00;99.90
7576;DHT22;3829;50.798;4.358;2023-06-14T07:03:45;22.20;99.90
7576;DHT22;3829;50.798;4.358;2023-06-14T07:06:12;22.40;99.90
7576;DHT22;3829;50.798;4.358;2023-06-14T07:08:38;22.40;99.90
7576;DHT22;3829;50.798;4.358;2023-06-14T07:11:06;22.50;99.90
7576;DHT22;3829;50.798;4.358;2023-06-14T07:13:32;22.60;99.90
7576;DHT22;3829;50.798;4.358;2023-06-14T07:15:59;22.60;99.90
7576;DHT22;3829;50.798;4.358;2023-06-14T07:18:25;22.70;99.90
7576;DHT22;3829;50.798;4.358;2023-06-14T07:20:52;22.80;99.90
7576;DHT22;3829;50.798;4.358;2023-06-14T07:23:18;22.90;99.90
7576;DHT22;3829;50.798;4.358;2023-06-14T07:25:44;23.00;99.90
7576;DHT22;3829;50.798;4.358;2023-06-14T07:28:10;23.20;99.90
7576;DHT22;3829;50.798;4.358;2023-06-14T07:30:35;23.40;99.90
7576;DHT22;3829;50.798;4.358;2023-06-14T07:33:01;23.40;99.90
7576;DHT22;3829;50.798;4.358;2023-06-14T07:35:26;23.50;99.90
7576;DHT22;3829;50.798;4.358;2023-06-14T07:37:52;23.60;99.90
7576;DHT22;3829;50.798;4.358;2023-06-14T07:40:18;23.70;99.90
7576;DHT22;3829;50.798;4.358;2023-06-14T07:42:43;23.90;99.90
7576;DHT22;3829;50.798;4.358;2023-06-14T07:45:09;23.90;99.90
7576;DHT22;3829;50.798;4.358;2023-06-14T07:47:35;23.80;99.90
7576;DHT22;3829;50.798;4.358;2023-06-14T07:50:01;24.00;99.90
7576;DHT22;3829;50.798;4.358;2023-06-14T07:52:26;24.10;99.90
7576;DHT22;3829;50.798;4.358;2023-06-14T07:54:52;24.20;99.90
7576;DHT22;3829;50.798;4.358;2023-06-14T07:57:17;24.40;99.90
7576;DHT22;3829;50.798;4.358;2023-06-14T07:59:45;24.40;99.90
7576;DHT22;3829;50.798;4.358;2023-06-14T08:02:11;24.30;99.90
7576;DHT22;3829;50.798;4.358;2023-06-14T08:04:37;24.40;99.90
7576;DHT22;3829;50.798;4.358;2023-06-14T08:07:03;24.40;99.90
7576;DHT22;3829;50.798;4.358;2023-06-14T08:09:29;24.70;99.90
7576;DHT22;3829;50.798;4.358;2023-06-14T08:11:55;24.80;99.90
7576;DHT22;3829;50.798;4.358;2023-06-14T08:14:21;24.90;99.90
7576;DHT22;3829;50.798;4.358;2023-06-14T08:16:46;24.90;99.90
7576;DHT22;3829;50.798;4.358;2023-06-14T08:19:12;25.00;99.90
7576;DHT22;3829;50.798;4.358;2023-06-14T08:21:37;25.10;99.90
7576;DHT22;3829;50.798;4.358;2023-06-14T08:24:03;25.30;99.90
7576;DHT22;3829;50.798;4.358;2023-06-14T08:26:30;25.30;99.90
7576;DHT22;3829;50.798;4.358;2023-06-14T08:28:56;25.40;99.90
7576;DHT22;3829;50.798;4.358;2023-06-14T08:31:21;25.50;99.90
7576;DHT22;3829;50.798;4.358;2023-06-14T08:33:47;25.50;99.90
7576;DHT22;3829;50.798;4.358;2023-06-14T08:36:13;25.60;99.90
7576;DHT22;3829;50.798;4.358;2023-06-14T08:38:39;25.70;99.90
7576;DHT22;3829;50.798;4.358;2023-06-14T08:41:05;25.80;99.50
7576;DHT22;3829;50.798;4.358;2023-06-14T08:43:32;26.00;99.90
7576;DHT22;3829;50.798;4.358;2023-06-14T08:46:02;26.20;99.40
7576;DHT22;3829;50.798;4.358;2023-06-14T08:48:28;26.30;99.50
7576;DHT22;3829;50.798;4.358;2023-06-14T08:50:56;26.30;99.90
7576;DHT22;3829;50.798;4.358;2023-06-14T08:53:28;26.20;99.80
7576;DHT22;3829;50.798;4.358;2023-06-14T08:55:54;26.20;99.80
7576;DHT22;3829;50.798;4.358;2023-06-14T08:58:21;26.10;99.70
7576;DHT22;3829;50.798;4.358;2023-06-14T09:00:50;26.10;99.90
7576;DHT22;3829;50.798;4.358;2023-06-14T09:03:18;26.30;99.90
7576;DHT22;3829;50.798;4.358;2023-06-14T09:05:46;26.40;99.90
7576;DHT22;3829;50.798;4.358;2023-06-14T09:08:12;26.60;99.90
7576;DHT22;3829;50.798;4.358;2023-06-14T09:10:39;26.70;99.90
7576;DHT22;3829;50.798;4.358;2023-06-14T09:13:05;26.70;99.90
7576;DHT22;3829;50.798;4.358;2023-06-14T09:15:31;26.70;99.90
7576;DHT22;3829;50.798;4.358;2023-06-14T09:17:57;26.60;99.90
7576;DHT22;3829;50.798;4.358;2023-06-14T09:20:24;26.60;99.90
7576;DHT22;3829;50.798;4.358;2023-06-14T09:22:50;26.70;99.90
7576;DHT22;3829;50.798;4.358;2023-06-14T09:25:16;26.60;99.90
7576;DHT22;3829;50.798;4.358;2023-06-14T09:27:42;26.80;99.90
7576;DHT22;3829;50.798;4.358;2023-06-14T09:30:09;26.60;99.90
7576;DHT22;3829;50.798;4.358;2023-06-14T09:32:37;26.60;99.80
7576;DHT22;3829;50.798;4.358;2023-06-14T09:35:05;26.50;99.90
7576;DHT22;3829;50.798;4.358;2023-06-14T09:37:32;26.50;99.90
7576;DHT22;3829;50.798;4.358;2023-06-14T09:39:58;26.70;99.70
7576;DHT22;3829;50.798;4.358;2023-06-14T09:42:24;26.70;98.70
7576;DHT22;3829;50.798;4.358;2023-06-14T09:44:52;26.80;99.40
7576;DHT22;3829;50.798;4.358;2023-06-14T09:47:19;26.70;99.40
7576;DHT22;3829;50.798;4.358;2023-06-14T09:49:44;26.70;99.50
7576;DHT22;3829;50.798;4.358;2023-06-14T09:52:18;27.00;99.50
7576;DHT22;3829;50.798;4.358;2023-06-14T09:54:47;27.10;98.70
7576;DHT22;3829;50.798;4.358;2023-06-14T09:57:15;27.10;98.90
7576;DHT22;3829;50.798;4.358;2023-06-14T09:59:43;27.20;98.80
7576;DHT22;3829;50.798;4.358;2023-06-14T10:04:56;27.00;98.40
7576;DHT22;3829;50.798;4.358;2023-06-14T10:07:24;27.10;97.70
7576;DHT22;3829;50.798;4.358;2023-06-14T10:09:53;27.10;98.10
7576;DHT22;3829;50.798;4.358;2023-06-14T10:12:19;27.10;98.00
7576;DHT22;3829;50.798;4.358;2023-06-14T10:14:49;27.20;98.40
7576;DHT22;3829;50.798;4.358;2023-06-14T10:17:33;27.20;97.50
7576;DHT22;3829;50.798;4.358;2023-06-14T10:22:50;27.30;97.60
7576;DHT22;3829;50.798;4.358;2023-06-14T10:25:30;27.40;97.80
7576;DHT22;3829;50.798;4.358;2023-06-14T10:28:16;27.30;97.90
7576;DHT22;3829;50.798;4.358;2023-06-14T10:33:29;27.50;97.90
7576;DHT22;3829;50.798;4.358;2023-06-14T10:36:30;27.60;97.80
7576;DHT22;3829;50.798;4.358;2023-06-14T10:41:36;27.80;96.60
7576;DHT22;3829;50.798;4.358;2023-06-14T10:44:30;27.80;95.80
7576;DHT22;3829;50.798;4.358;2023-06-14T10:46:59;27.80;96.20
7576;DHT22;3829;50.798;4.358;2023-06-14T10:49:38;27.90;94.70
7576;DHT22;3829;50.798;4.358;2023-06-14T10:52:09;27.90;93.70
7576;DHT22;3829;50.798;4.358;2023-06-14T10:54:37;27.90;93.40
7576;DHT22;3829;50.798;4.358;2023-06-14T10:57:06;28.10;93.40
7576;DHT22;3829;50.798;4.358;2023-06-14T10:59:33;27.90;93.30
7576;DHT22;3829;50.798;4.358;2023-06-14T11:04:48;27.90;93.20
7576;DHT22;3829;50.798;4.358;2023-06-14T11:12:47;28.20;92.20
7576;DHT22;3829;50.798;4.358;2023-06-14T11:15:13;28.10;91.90
7576;DHT22;3829;50.798;4.358;2023-06-14T11:17:39;28.00;92.50
7576;DHT22;3829;50.798;4.358;2023-06-14T11:20:09;28.10;91.40
7576;DHT22;3829;50.798;4.358;2023-06-14T11:22:42;28.20;91.70
7576;DHT22;3829;50.798;4.358;2023-06-14T11:25:10;28.10;91.40
7576;DHT22;3829;50.798;4.358;2023-06-14T11:27:36;28.20;92.20
7576;DHT22;3829;50.798;4.358;2023-06-14T11:30:02;28.40;91.30
7576;DHT22;3829;50.798;4.358;2023-06-14T11:32:27;28.50;90.80
7576;DHT22;3829;50.798;4.358;2023-06-14T11:34:53;28.50;91.30
7576;DHT22;3829;50.798;4.358;2023-06-14T11:37:19;28.50;91.30
7576;DHT22;3829;50.798;4.358;2023-06-14T11:39:45;28.50;91.70
7576;DHT22;3829;50.798;4.358;2023-06-14T11:42:15;28.60;91.50
7576;DHT22;3829;50.798;4.358;2023-06-14T11:44:41;28.40;90.90
7576;DHT22;3829;50.798;4.358;2023-06-14T11:47:07;28.30;90.70
7576;DHT22;3829;50.798;4.358;2023-06-14T11:49:36;28.10;90.70
7576;DHT22;3829;50.798;4.358;2023-06-14T11:52:02;28.30;90.70
7576;DHT22;3829;50.798;4.358;2023-06-14T11:54:27;28.30;90.10
7576;DHT22;3829;50.798;4.358;2023-06-14T11:56:53;28.30;90.50
7576;DHT22;3829;50.798;4.358;2023-06-14T11:59:20;28.20;90.50
7576;DHT22;3829;50.798;4.358;2023-06-14T12:01:47;28.20;90.40
7576;DHT22;3829;50.798;4.358;2023-06-14T12:04:13;28.40;90.50
7576;DHT22;3829;50.798;4.358;2023-06-14T12:06:39;28.60;91.20
7576;DHT22;3829;50.798;4.358;2023-06-14T12:09:06;28.60;91.10
7576;DHT22;3829;50.798;4.358;2023-06-14T12:11:36;28.70;90.30
7576;DHT22;3829;50.798;4.358;2023-06-14T12:14:04;28.50;90.00
7576;DHT22;3829;50.798;4.358;2023-06-14T12:16:33;28.50;89.10
7576;DHT22;3829;50.798;4.358;2023-06-14T12:19:01;28.50;89.30
7576;DHT22;3829;50.798;4.358;2023-06-14T12:21:32;28.60;90.10
7576;DHT22;3829;50.798;4.358;2023-06-14T12:24:03;28.60;90.00
7576;DHT22;3829;50.798;4.358;2023-06-14T12:26:29;28.70;90.40
7576;DHT22;3829;50.798;4.358;2023-06-14T12:28:56;29.00;90.30
7576;DHT22;3829;50.798;4.358;2023-06-14T12:31:22;28.90;89.20
7576;DHT22;3829;50.798;4.358;2023-06-14T12:33:48;28.70;89.00
7576;DHT22;3829;50.798;4.358;2023-06-14T12:36:14;28.70;88.80
7576;DHT22;3829;50.798;4.358;2023-06-14T12:38:40;28.80;88.20
7576;DHT22;3829;50.798;4.358;2023-06-14T12:41:07;28.90;89.90
7576;DHT22;3829;50.798;4.358;2023-06-14T12:43:33;28.90;89.30
7576;DHT22;3829;50.798;4.358;2023-06-14T12:45:59;29.00;88.50
7576;DHT22;3829;50.798;4.358;2023-06-14T12:48:25;29.10;88.80
7576;DHT22;3829;50.798;4.358;2023-06-14T12:50:53;29.10;89.70
7576;DHT22;3829;50.798;4.358;2023-06-14T12:53:18;29.30;87.50
7576;DHT22;3829;50.798;4.358;2023-06-14T12:55:44;29.10;86.50
7576;DHT22;3829;50.798;4.358;2023-06-14T12:58:10;29.20;88.60
7576;DHT22;3829;50.798;4.358;2023-06-14T13:00:38;29.10;87.50
7576;DHT22;3829;50.798;4.358;2023-06-14T13:03:03;29.20;86.10
7576;DHT22;3829;50.798;4.358;2023-06-14T13:05:29;29.50;86.00
7576;DHT22;3829;50.798;4.358;2023-06-14T13:07:56;29.80;86.60
7576;DHT22;3829;50.798;4.358;2023-06-14T13:10:22;30.80;85.40
7576;DHT22;3829;50.798;4.358;2023-06-14T13:12:47;31.80;84.90
7576;DHT22;3829;50.798;4.358;2023-06-14T13:15:13;31.60;83.00
7576;DHT22;3829;50.798;4.358;2023-06-14T13:17:39;30.80;83.40
7576;DHT22;3829;50.798;4.358;2023-06-14T13:20:06;31.50;82.90
7576;DHT22;3829;50.798;4.358;2023-06-14T13:22:32;32.80;83.10
7576;DHT22;3829;50.798;4.358;2023-06-14T13:24:58;32.60;80.60
7576;DHT22;3829;50.798;4.358;2023-06-14T13:27:23;31.30;82.20
7576;DHT22;3829;50.798;4.358;2023-06-14T13:29:50;32.20;80.90
7576;DHT22;3829;50.798;4.358;2023-06-14T13:32:15;33.20;80.80
7576;DHT22;3829;50.798;4.358;2023-06-14T13:34:41;33.40;79.80
7576;DHT22;3829;50.798;4.358;2023-06-14T13:37:06;33.80;79.30
7576;DHT22;3829;50.798;4.358;2023-06-14T13:39:32;33.80;79.30
7576;DHT22;3829;50.798;4.358;2023-06-14T13:41:58;34.20;79.30
7576;DHT22;3829;50.798;4.358;2023-06-14T13:44:23;34.90;78.10
7576;DHT22;3829;50.798;4.358;2023-06-14T13:46:50;35.10;77.10
7576;DHT22;3829;50.798;4.358;2023-06-14T13:49:16;34.50;78.30
7576;DHT22;3829;50.798;4.358;2023-06-14T13:51:42;33.50;76.30
7576;DHT22;3829;50.798;4.358;2023-06-14T13:54:07;33.70;77.00
7576;DHT22;3829;50.798;4.358;2023-06-14T13:56:33;33.00;76.50
7576;DHT22;3829;50.798;4.358;2023-06-14T13:58:59;31.90;76.40
7576;DHT22;3829;50.798;4.358;2023-06-14T14:01:25;31.70;76.80
7576;DHT22;3829;50.798;4.358;2023-06-14T14:03:52;32.00;76.80
7576;DHT22;3829;50.798;4.358;2023-06-14T14:06:17;31.70;76.00
7576;DHT22;3829;50.798;4.358;2023-06-14T14:08:43;32.10;75.30
7576;DHT22;3829;50.798;4.358;2023-06-14T14:11:10;32.50;74.50
7576;DHT22;3829;50.798;4.358;2023-06-14T14:13:35;33.10;74.20
7576;DHT22;3829;50.798;4.358;2023-06-14T14:16:02;33.50;75.20
7576;DHT22;3829;50.798;4.358;2023-06-14T14:18:28;34.50;74.60
7576;DHT22;3829;50.798;4.358;2023-06-14T14:20:54;34.40;73.00
7576;DHT22;3829;50.798;4.358;2023-06-14T14:23:21;34.50;72.00
7576;DHT22;3829;50.798;4.358;2023-06-14T14:25:47;33.30;72.00
7576;DHT22;3829;50.798;4.358;2023-06-14T14:28:12;32.90;73.10
7576;DHT22;3829;50.798;4.358;2023-06-14T14:30:42;33.40;72.30
7576;DHT22;3829;50.798;4.358;2023-06-14T14:33:08;33.90;71.30
7576;DHT22;3829;50.798;4.358;2023-06-14T14:35:34;33.40;72.90
7576;DHT22;3829;50.798;4.358;2023-06-14T14:37:59;34.60;72.80
7576;DHT22;3829;50.798;4.358;2023-06-14T14:40:25;34.40;72.00
7576;DHT22;3829;50.798;4.358;2023-06-14T14:42:50;33.40;70.10
7576;DHT22;3829;50.798;4.358;2023-06-14T14:45:16;32.80;71.20
7576;DHT22;3829;50.798;4.358;2023-06-14T14:47:42;33.20;69.70
7576;DHT22;3829;50.798;4.358;2023-06-14T14:50:07;32.60;70.90
7576;DHT22;3829;50.798;4.358;2023-06-14T14:52:35;33.20;71.20
7576;DHT22;3829;50.798;4.358;2023-06-14T14:55:00;34.50;70.70
7576;DHT22;3829;50.798;4.358;2023-06-14T14:57:26;35.00;69.30
7576;DHT22;3829;50.798;4.358;2023-06-14T14:59:52;33.70;69.70
7576;DHT22;3829;50.798;4.358;2023-06-14T15:02:18;33.80;70.10
7576;DHT22;3829;50.798;4.358;2023-06-14T15:04:44;34.90;69.60
7576;DHT22;3829;50.798;4.358;2023-06-14T15:07:10;35.90;70.10
7576;DHT22;3829;50.798;4.358;2023-06-14T15:09:36;36.90;68.00
7576;DHT22;3829;50.798;4.358;2023-06-14T15:12:01;37.00;68.10
7576;DHT22;3829;50.798;4.358;2023-06-14T15:14:28;36.90;68.10
7576;DHT22;3829;50.798;4.358;2023-06-14T15:16:53;37.30;66.50
7576;DHT22;3829;50.798;4.358;2023-06-14T15:19:19;36.30;65.60
7576;DHT22;3829;50.798;4.358;2023-06-14T15:21:44;34.00;66.00
7576;DHT22;3829;50.798;4.358;2023-06-14T15:24:10;34.40;66.30
7576;DHT22;3829;50.798;4.358;2023-06-14T15:26:36;35.40;68.00
7576;DHT22;3829;50.798;4.358;2023-06-14T15:29:01;34.80;66.20
7576;DHT22;3829;50.798;4.358;2023-06-14T15:31:27;34.00;65.90
7576;DHT22;3829;50.798;4.358;2023-06-14T15:33:54;33.00;67.10
7576;DHT22;3829;50.798;4.358;2023-06-14T15:36:20;34.30;67.30
7576;DHT22;3829;50.798;4.358;2023-06-14T15:38:45;35.00;66.90
7576;DHT22;3829;50.798;4.358;2023-06-14T15:41:11;36.20;66.30
7576;DHT22;3829;50.798;4.358;2023-06-14T15:43:36;35.50;65.70
7576;DHT22;3829;50.798;4.358;2023-06-14T15:46:02;35.40;66.40
7576;DHT22;3829;50.798;4.358;2023-06-14T15:48:27;34.80;66.70
7576;DHT22;3829;50.798;4.358;2023-06-14T15:50:53;34.00;67.00
7576;DHT22;3829;50.798;4.358;2023-06-14T15:53:19;34.20;66.20
7576;DHT22;3829;50.798;4.358;2023-06-14T15:55:45;35.50;66.70
7576;DHT22;3829;50.798;4.358;2023-06-14T15:58:11;35.60;66.10
7576;DHT22;3829;50.798;4.358;2023-06-14T16:00:37;33.60;66.70
7576;DHT22;3829;50.798;4.358;2023-06-14T16:03:03;33.40;67.20
7576;DHT22;3829;50.798;4.358;2023-06-14T16:05:29;33.70;67.40
7576;DHT22;3829;50.798;4.358;2023-06-14T16:07:54;34.80;66.00
7576;DHT22;3829;50.798;4.358;2023-06-14T16:10:20;34.90;65.90
7576;DHT22;3829;50.798;4.358;2023-06-14T16:12:45;35.60;66.00
7576;DHT22;3829;50.798;4.358;2023-06-14T16:15:11;36.10;65.20
7576;DHT22;3829;50.798;4.358;2023-06-14T16:17:37;36.00;65.80
7576;DHT22;3829;50.798;4.358;2023-06-14T16:20:03;36.10;66.00